createdAt,value
2023-02-27T00:01:20.884Z,10.20
2023-02-27T00:03:47.397Z,10.20
2023-02-27T00:06:15.404Z,10.30
2023-02-27T00:08:41.929Z,10.10
2023-02-27T00:11:08.488Z,10.20
2023-02-27T00:13:34.988Z,10.20
2023-02-27T00:16:01.524Z,10.20
2023-02-27T00:18:28.008Z,10.20
2023-02-27T00:20:54.511Z,10.20
2023-02-27T00:23:20.993Z,10.30
2023-02-27T00:25:47.465Z,10.30
2023-02-27T00:28:13.966Z,10.30
2023-02-27T00:30:40.445Z,10.20
2023-02-27T00:33:06.928Z,10.20
2023-02-27T00:35:33.430Z,10.20
2023-02-27T00:37:59.893Z,10.30
2023-02-27T00:40:26.373Z,10.30
2023-02-27T00:42:52.860Z,10.20
2023-02-27T00:45:19.343Z,10.20
2023-02-27T00:47:45.832Z,10.20
2023-02-27T00:50:12.313Z,10.20
2023-02-27T00:52:38.779Z,10.20
2023-02-27T00:55:09.434Z,10.20
2023-02-27T00:57:35.998Z,10.20
2023-02-27T01:00:02.511Z,10.20
2023-02-27T01:02:29.096Z,10.20
2023-02-27T01:04:55.624Z,10.20
2023-02-27T01:07:22.145Z,10.20
2023-02-27T01:09:48.636Z,10.20
2023-02-27T01:12:15.122Z,10.20
2023-02-27T01:14:41.592Z,10.10
2023-02-27T01:17:08.112Z,10.10
2023-02-27T01:19:34.594Z,10.10
2023-02-27T01:22:01.074Z,10.10
2023-02-27T01:24:27.566Z,10.10
2023-02-27T01:26:54.069Z,10.10
2023-02-27T01:29:20.557Z,10.10
2023-02-27T01:31:47.129Z,10.20
2023-02-27T01:34:13.676Z,10.20
2023-02-27T01:36:40.139Z,10.20
2023-02-27T01:39:06.634Z,10.20
2023-02-27T01:41:33.103Z,10.20
2023-02-27T01:43:59.572Z,10.20
2023-02-27T01:46:26.066Z,10.20
2023-02-27T01:48:52.555Z,10.20
2023-02-27T01:51:19.036Z,10.20
2023-02-27T01:53:45.514Z,10.20
2023-02-27T01:56:11.967Z,10.10
2023-02-27T01:58:38.446Z,10.10
2023-02-27T02:01:04.980Z,10.20
2023-02-27T02:03:31.507Z,10.10
2023-02-27T02:05:58.004Z,10.10
2023-02-27T02:08:24.487Z,10.10
2023-02-27T02:10:50.972Z,10.20
2023-02-27T02:13:17.457Z,10.10
2023-02-27T02:15:43.963Z,10.10
2023-02-27T02:18:10.437Z,10.00
2023-02-27T02:20:36.936Z,10.10
2023-02-27T02:23:03.422Z,10.00
2023-02-27T02:25:29.904Z,10.00
2023-02-27T02:27:56.382Z,10.10
2023-02-27T02:30:22.848Z,10.00
2023-02-27T02:32:49.339Z,10.00
2023-02-27T02:35:15.818Z,10.10
2023-02-27T02:37:42.285Z,10.10
2023-02-27T02:40:08.757Z,10.10
2023-02-27T02:42:39.544Z,10.00
2023-02-27T02:45:06.042Z,9.90
2023-02-27T02:47:32.504Z,10.00
2023-02-27T02:49:58.984Z,10.00
2023-02-27T02:52:25.453Z,9.90
2023-02-27T02:54:51.927Z,10.00
2023-02-27T02:57:18.422Z,10.00
2023-02-27T02:59:44.901Z,10.00
2023-02-27T03:02:11.377Z,10.10
2023-02-27T03:04:37.883Z,10.10
2023-02-27T03:07:05.221Z,10.10
2023-02-27T03:09:31.707Z,10.10
2023-02-27T03:11:58.169Z,10.00
2023-02-27T03:14:24.637Z,10.10
2023-02-27T03:16:51.123Z,10.10
2023-02-27T03:19:17.598Z,10.10
2023-02-27T03:21:44.105Z,10.10
2023-02-27T03:24:10.567Z,10.10
2023-02-27T03:26:37.030Z,10.10
2023-02-27T03:29:03.516Z,10.10
2023-02-27T03:31:33.662Z,10.10
2023-02-27T03:34:01.579Z,10.00
2023-02-27T03:36:28.163Z,9.90
2023-02-27T03:38:54.656Z,10.00
2023-02-27T03:41:21.139Z,10.00
2023-02-27T03:43:47.604Z,10.00
2023-02-27T03:46:14.166Z,10.00
2023-02-27T03:48:40.686Z,10.00
2023-02-27T03:51:07.184Z,10.10
2023-02-27T03:53:33.653Z,10.00
2023-02-27T03:56:00.130Z,10.00
2023-02-27T03:58:26.618Z,9.90
2023-02-27T04:00:53.103Z,9.90
2023-02-27T04:03:19.620Z,9.90
2023-02-27T04:05:46.096Z,9.90
2023-02-27T04:08:12.578Z,10.00
2023-02-27T04:10:39.163Z,10.00
2023-02-27T04:13:05.654Z,10.00
2023-02-27T04:15:32.141Z,10.00
2023-02-27T04:17:58.614Z,10.00
2023-02-27T04:20:25.103Z,10.00
2023-02-27T04:22:51.585Z,10.00
2023-02-27T04:25:18.039Z,10.00
2023-02-27T04:27:44.504Z,10.00
2023-02-27T04:30:10.997Z,9.80
2023-02-27T04:32:37.598Z,9.90
2023-02-27T04:35:04.151Z,9.90
2023-02-27T04:37:30.648Z,10.00
2023-02-27T04:39:57.146Z,10.00
2023-02-27T04:42:23.619Z,9.90
2023-02-27T04:44:50.104Z,10.00
2023-02-27T04:47:16.601Z,10.00
2023-02-27T04:49:43.086Z,9.80
2023-02-27T04:52:09.610Z,9.90
2023-02-27T04:54:36.088Z,10.00
2023-02-27T04:57:02.583Z,9.90
2023-02-27T04:59:33.712Z,9.90
2023-02-27T05:02:00.345Z,9.90
2023-02-27T05:04:26.858Z,9.90
2023-02-27T05:06:53.349Z,10.00
2023-02-27T05:09:19.830Z,10.00
2023-02-27T05:11:46.303Z,9.90
2023-02-27T05:14:12.785Z,10.00
2023-02-27T05:16:39.355Z,10.00
2023-02-27T05:19:05.872Z,10.00
2023-02-27T05:21:32.353Z,10.00
2023-02-27T05:23:58.834Z,10.00
2023-02-27T05:26:25.318Z,9.90
2023-02-27T05:28:51.801Z,9.90
2023-02-27T05:31:18.295Z,9.90
2023-02-27T05:33:44.818Z,9.90
2023-02-27T05:36:15.725Z,9.80
2023-02-27T05:38:42.192Z,9.70
2023-02-27T05:41:09.402Z,9.80
2023-02-27T05:43:35.946Z,9.90
2023-02-27T05:46:02.430Z,9.90
2023-02-27T05:48:28.941Z,9.90
2023-02-27T05:50:55.405Z,9.90
2023-02-27T05:53:21.890Z,9.90
2023-02-27T05:55:48.384Z,9.90
2023-02-27T05:58:14.877Z,9.90
2023-02-27T06:00:41.348Z,9.90
2023-02-27T06:03:07.891Z,9.90
2023-02-27T06:05:34.367Z,9.90
2023-02-27T06:08:00.836Z,9.90
2023-02-27T06:10:27.315Z,9.90
2023-02-27T06:12:53.812Z,9.80
2023-02-27T06:15:20.300Z,9.80
2023-02-27T06:17:46.779Z,9.90
2023-02-27T06:20:13.270Z,9.90
2023-02-27T06:22:39.722Z,9.80
2023-02-27T06:25:06.210Z,9.80
2023-02-27T06:27:32.672Z,9.80
2023-02-27T06:29:59.144Z,9.90
2023-02-27T06:32:25.668Z,9.80
2023-02-27T06:34:57.702Z,9.90
2023-02-27T06:37:24.185Z,9.90
2023-02-27T06:39:50.667Z,9.90
2023-02-27T06:42:17.139Z,9.80
2023-02-27T06:44:43.815Z,9.90
2023-02-27T06:47:10.311Z,9.90
2023-02-27T06:49:36.798Z,9.80
2023-02-27T06:52:03.282Z,9.90
2023-02-27T06:54:29.785Z,9.80
2023-02-27T06:56:56.261Z,9.90
2023-02-27T06:59:22.754Z,9.80
2023-02-27T07:01:49.216Z,9.90
2023-02-27T07:04:15.778Z,9.90
2023-02-27T07:07:34.985Z,9.80
2023-02-27T07:09:33.730Z,9.80
2023-02-27T07:12:00.208Z,9.80
2023-02-27T07:14:26.713Z,9.80
2023-02-27T07:16:53.174Z,9.80
2023-02-27T07:19:19.694Z,9.70
2023-02-27T07:21:46.175Z,9.80
2023-02-27T07:24:12.655Z,9.80
2023-02-27T07:26:39.185Z,9.80
2023-02-27T07:29:05.668Z,9.80
2023-02-27T07:31:32.279Z,9.90
2023-02-27T07:33:58.783Z,9.80
2023-02-27T07:36:25.483Z,9.80
2023-02-27T07:38:52.036Z,9.80
2023-02-27T07:41:30.420Z,9.80
2023-02-27T07:43:57.562Z,9.80
2023-02-27T07:46:24.101Z,9.80
2023-02-27T07:48:50.877Z,9.80
2023-02-27T07:51:17.440Z,9.80
2023-02-27T07:53:43.941Z,9.80
2023-02-27T07:56:10.419Z,9.80
2023-02-27T07:58:36.973Z,9.80
2023-02-27T08:01:03.555Z,9.80
2023-02-27T08:03:33.866Z,9.80
2023-02-27T08:06:02.322Z,9.80
2023-02-27T08:08:29.054Z,9.80
2023-02-27T08:10:55.542Z,9.80
2023-02-27T08:13:42.487Z,9.90
2023-02-27T08:16:08.581Z,9.80
2023-02-27T08:18:35.167Z,9.70
2023-02-27T08:21:01.685Z,9.80
2023-02-27T08:23:28.159Z,9.80
2023-02-27T08:25:54.660Z,9.80
2023-02-27T08:28:21.132Z,9.80
2023-02-27T08:30:47.639Z,9.70
2023-02-27T08:33:14.118Z,9.70
2023-02-27T08:35:40.673Z,9.70
2023-02-27T08:38:07.188Z,9.70
2023-02-27T08:40:33.694Z,9.70
2023-02-27T08:43:00.163Z,9.70
2023-02-27T08:45:26.709Z,9.70
2023-02-27T08:47:53.204Z,9.80
2023-02-27T08:50:19.723Z,9.80
2023-02-27T08:52:46.210Z,9.80
2023-02-27T08:55:12.703Z,9.70
2023-02-27T08:57:39.164Z,9.70
2023-02-27T09:00:05.670Z,9.80
2023-02-27T09:02:32.233Z,9.70
2023-02-27T09:04:58.731Z,9.80
2023-02-27T09:07:25.212Z,9.80
2023-02-27T09:09:51.686Z,9.80
2023-02-27T09:12:18.154Z,9.80
2023-02-27T09:14:44.631Z,9.70
2023-02-27T09:17:11.106Z,9.70
2023-02-27T09:19:37.576Z,9.80
2023-02-27T09:22:04.066Z,9.70
2023-02-27T09:24:30.538Z,9.80
2023-02-27T09:26:57.034Z,9.80
2023-02-27T09:29:23.532Z,9.80
2023-02-27T09:31:50.184Z,9.70
2023-02-27T09:34:16.711Z,9.80
2023-02-27T09:36:43.186Z,9.80
2023-02-27T09:39:09.660Z,9.70
2023-02-27T09:41:36.166Z,9.80
2023-02-27T09:44:02.645Z,9.80
2023-02-27T09:46:29.359Z,9.80
2023-02-27T09:48:56.041Z,9.70
2023-02-27T09:51:22.532Z,9.70
2023-02-27T09:53:49.013Z,9.80
2023-02-27T09:56:15.521Z,9.80
2023-02-27T09:58:42.029Z,9.70
2023-02-27T10:01:08.535Z,9.70
2023-02-27T10:03:35.030Z,9.70
2023-02-27T10:06:01.546Z,9.70
2023-02-27T10:08:27.994Z,9.70
2023-02-27T10:10:54.478Z,9.80
2023-02-27T10:13:20.939Z,9.70
2023-02-27T10:15:47.422Z,9.70
2023-02-27T10:18:26.122Z,9.70
2023-02-27T10:20:54.007Z,9.70
2023-02-27T10:23:21.936Z,9.80
2023-02-27T10:25:48.517Z,9.80
2023-02-27T10:28:14.990Z,9.80
2023-02-27T10:30:41.516Z,9.80
2023-02-27T10:33:08.002Z,9.80
2023-02-27T10:35:34.492Z,9.70
2023-02-27T10:38:00.985Z,9.80
2023-02-27T10:40:27.496Z,9.80
2023-02-27T10:42:53.975Z,9.80
2023-02-27T10:45:20.458Z,9.80
2023-02-27T10:47:46.936Z,9.80
2023-02-27T10:50:13.648Z,9.80
2023-02-27T10:52:41.551Z,9.80
2023-02-27T10:55:09.444Z,9.90
2023-02-27T10:57:35.949Z,9.80
2023-02-27T11:00:02.415Z,9.80
2023-02-27T11:02:28.912Z,9.80
2023-02-27T11:04:55.530Z,9.80
2023-02-27T11:07:22.058Z,9.80
2023-02-27T11:09:48.530Z,9.80
2023-02-27T11:12:15.031Z,9.80
2023-02-27T11:14:41.518Z,9.80
2023-02-27T11:17:08.002Z,9.70
2023-02-27T11:19:34.495Z,9.70
2023-02-27T11:22:00.988Z,9.70
2023-02-27T11:24:27.461Z,9.70
2023-02-27T11:26:53.969Z,9.80
2023-02-27T11:29:21.914Z,9.70
2023-02-27T11:31:48.414Z,9.70
2023-02-27T11:34:14.900Z,9.80
2023-02-27T11:36:45.944Z,9.70
2023-02-27T11:39:12.438Z,9.70
2023-02-27T11:41:38.912Z,9.70
2023-02-27T11:44:05.377Z,9.80
2023-02-27T11:46:42.278Z,9.70
2023-02-27T11:49:13.941Z,9.80
2023-02-27T11:51:40.395Z,9.80
2023-02-27T11:54:06.898Z,9.80
2023-02-27T11:56:35.779Z,9.80
2023-02-27T11:59:02.607Z,9.90
2023-02-27T12:01:29.325Z,9.80
2023-02-27T12:03:56.047Z,9.90
2023-02-27T12:06:22.554Z,9.90
2023-02-27T12:08:49.059Z,9.90
2023-02-27T12:11:15.524Z,9.90
2023-02-27T12:13:42.018Z,9.90
2023-02-27T12:16:08.522Z,9.90
2023-02-27T12:18:35.036Z,9.90
2023-02-27T12:21:01.496Z,9.90
2023-02-27T12:23:27.987Z,9.90
2023-02-27T12:25:54.446Z,9.90
2023-02-27T12:28:20.936Z,9.90
2023-02-27T12:30:47.408Z,9.90
2023-02-27T12:33:13.890Z,10.00
2023-02-27T12:35:46.026Z,9.90
2023-02-27T12:38:12.576Z,9.90
2023-02-27T12:40:39.104Z,9.90
2023-02-27T12:43:05.649Z,9.90
2023-02-27T12:45:32.188Z,9.90
2023-02-27T12:47:58.678Z,9.90
2023-02-27T12:50:25.259Z,9.90
2023-02-27T12:52:51.747Z,9.90
2023-02-27T12:55:18.243Z,10.00
2023-02-27T12:57:44.746Z,10.00
2023-02-27T13:00:16.018Z,10.00
2023-02-27T13:02:46.063Z,10.00
2023-02-27T13:05:12.542Z,10.00
2023-02-27T13:07:39.037Z,10.00
2023-02-27T13:10:05.527Z,10.10
2023-02-27T13:12:31.991Z,10.00
2023-02-27T13:14:58.458Z,10.00
2023-02-27T13:17:24.923Z,10.10
2023-02-27T13:19:51.381Z,10.10
2023-02-27T13:22:17.848Z,10.00
2023-02-27T13:24:44.322Z,10.00
2023-02-27T13:27:10.785Z,10.00
2023-02-27T13:29:37.274Z,10.00
2023-02-27T13:32:03.839Z,10.00
2023-02-27T13:34:30.397Z,10.00
2023-02-27T13:36:56.861Z,10.00
2023-02-27T13:39:23.363Z,10.00
2023-02-27T13:41:49.846Z,10.00
2023-02-27T13:44:16.319Z,9.90
2023-02-27T13:46:42.832Z,10.00
2023-02-27T13:49:12.564Z,10.00
2023-02-27T13:51:41.295Z,10.00
2023-02-27T13:54:10.034Z,10.00
2023-02-27T13:56:36.637Z,10.00
2023-02-27T13:59:03.134Z,10.00
2023-02-27T14:01:30.012Z,10.00
2023-02-27T14:03:56.733Z,10.00
2023-02-27T14:06:23.253Z,10.00
2023-02-27T14:08:49.723Z,10.00
2023-02-27T14:11:16.226Z,10.00
2023-02-27T14:13:42.726Z,10.00
2023-02-27T14:16:11.265Z,10.00
2023-02-27T14:18:37.871Z,10.00
2023-02-27T14:21:04.371Z,10.00
2023-02-27T14:23:30.842Z,10.00
2023-02-27T14:25:57.329Z,10.00
2023-02-27T14:28:28.280Z,10.00
2023-02-27T14:30:54.804Z,10.00
2023-02-27T14:33:33.308Z,10.10
2023-02-27T14:36:05.920Z,10.10
2023-02-27T14:38:32.401Z,10.00
2023-02-27T14:40:58.909Z,10.00
2023-02-27T14:43:25.368Z,10.10
2023-02-27T14:45:52.006Z,10.10
2023-02-27T14:48:18.499Z,10.00
2023-02-27T14:50:45.003Z,10.10
2023-02-27T14:53:11.471Z,10.00
2023-02-27T14:55:37.964Z,10.10
2023-02-27T14:58:04.462Z,10.10
2023-02-27T15:00:30.975Z,10.10
2023-02-27T15:02:57.459Z,10.10
2023-02-27T15:05:23.935Z,10.10
2023-02-27T15:07:50.418Z,10.10
2023-02-27T15:10:16.968Z,10.10
2023-02-27T15:12:43.440Z,10.10
2023-02-27T15:15:10.075Z,10.10
2023-02-27T15:17:36.602Z,10.10
2023-02-27T15:20:03.111Z,10.00
2023-02-27T15:22:38.591Z,10.00
2023-02-27T15:25:05.758Z,10.00
2023-02-27T15:27:32.224Z,10.10
2023-02-27T15:29:58.759Z,10.10
2023-02-27T15:32:25.315Z,10.10
2023-02-27T15:34:51.787Z,10.10
2023-02-27T15:37:22.147Z,10.10
2023-02-27T15:39:48.628Z,10.10
2023-02-27T15:42:15.103Z,10.10
2023-02-27T15:44:41.556Z,10.60
2023-02-27T15:47:08.036Z,11.10
2023-02-27T15:49:34.523Z,11.30
2023-02-27T15:52:02.351Z,11.60
2023-02-27T15:54:28.828Z,11.40
2023-02-27T15:56:55.310Z,11.10
2023-02-27T15:59:21.803Z,10.80
2023-02-27T16:01:48.371Z,10.60
2023-02-27T16:04:14.867Z,10.50
2023-02-27T16:06:41.475Z,10.50
2023-02-27T16:09:07.974Z,10.40
2023-02-27T16:11:34.495Z,10.40
2023-02-27T16:14:00.955Z,10.30
2023-02-27T16:16:27.812Z,10.30
2023-02-27T16:18:54.649Z,10.20
2023-02-27T16:21:21.124Z,10.30
2023-02-27T16:23:47.590Z,10.20
2023-02-27T16:26:14.108Z,10.20
2023-02-27T16:28:40.597Z,10.30
2023-02-27T16:31:07.079Z,10.30
2023-02-27T16:33:33.562Z,10.30
2023-02-27T16:36:00.102Z,10.20
2023-02-27T16:38:26.638Z,10.10
2023-02-27T16:40:53.212Z,10.10
2023-02-27T16:43:19.746Z,10.20
2023-02-27T16:45:46.248Z,10.20
2023-02-27T16:48:12.755Z,10.10
2023-02-27T16:50:39.257Z,10.10
2023-02-27T16:53:05.747Z,10.10
2023-02-27T16:55:33.667Z,10.10
2023-02-27T16:58:00.323Z,10.10
2023-02-27T17:00:26.799Z,10.10
2023-02-27T17:02:53.277Z,10.00
2023-02-27T17:05:19.756Z,10.00
2023-02-27T17:07:46.253Z,10.10
2023-02-27T17:10:12.738Z,10.00
2023-02-27T17:12:39.214Z,10.00
2023-02-27T17:15:05.701Z,10.10
2023-02-27T17:17:32.185Z,10.10
2023-02-27T17:19:58.673Z,10.10
2023-02-27T17:22:25.161Z,10.10
2023-02-27T17:24:58.307Z,10.10
2023-02-27T17:27:24.802Z,10.10
2023-02-27T17:29:51.280Z,10.10
2023-02-27T17:32:17.778Z,10.10
2023-02-27T17:34:44.270Z,10.00
2023-02-27T17:37:16.252Z,10.10
2023-02-27T17:39:42.737Z,10.10
2023-02-27T17:42:09.235Z,10.10
2023-02-27T17:44:35.689Z,10.10
2023-02-27T17:47:02.164Z,10.10
2023-02-27T17:49:28.639Z,10.10
2023-02-27T17:51:55.123Z,10.10
2023-02-27T17:54:21.589Z,10.10
2023-02-27T17:56:48.078Z,10.00
2023-02-27T17:59:14.568Z,10.10
2023-02-27T18:01:46.315Z,10.00
2023-02-27T18:04:12.821Z,10.00
2023-02-27T18:06:39.325Z,10.00
2023-02-27T18:09:05.819Z,10.10
2023-02-27T18:11:32.299Z,10.00
2023-02-27T18:13:58.790Z,10.00
2023-02-27T18:16:25.374Z,10.00
2023-02-27T18:18:51.932Z,10.00
2023-02-27T18:21:18.450Z,10.00
2023-02-27T18:23:44.928Z,10.00
2023-02-27T18:26:23.489Z,10.00
2023-02-27T18:28:58.288Z,10.00
2023-02-27T18:31:24.784Z,10.00
2023-02-27T18:33:51.284Z,10.00
2023-02-27T18:36:17.771Z,10.00
2023-02-27T18:38:44.255Z,10.00
2023-02-27T18:41:10.716Z,9.90
2023-02-27T18:43:37.197Z,10.00
2023-02-27T18:46:03.843Z,9.90
2023-02-27T18:48:30.356Z,10.00
2023-02-27T18:50:56.885Z,10.00
2023-02-27T18:53:23.383Z,9.90
2023-02-27T18:55:49.870Z,10.00
2023-02-27T18:58:22.320Z,10.00
2023-02-27T19:00:48.803Z,10.00
2023-02-27T19:03:15.424Z,9.90
2023-02-27T19:05:41.995Z,9.90
2023-02-27T19:08:08.502Z,9.90
2023-02-27T19:10:40.334Z,9.90
2023-02-27T19:13:06.836Z,9.90
2023-02-27T19:15:33.321Z,9.90
2023-02-27T19:17:59.804Z,9.90
2023-02-27T19:20:26.257Z,9.90
2023-02-27T19:22:52.780Z,9.90
2023-02-27T19:25:19.260Z,9.90
2023-02-27T19:27:45.735Z,9.90
2023-02-27T19:30:12.227Z,9.90
2023-02-27T19:32:38.700Z,9.90
2023-02-27T19:35:05.192Z,9.90
2023-02-27T19:37:31.660Z,9.90
2023-02-27T19:39:58.167Z,9.90
2023-02-27T19:42:24.676Z,9.90
2023-02-27T19:44:51.338Z,9.90
2023-02-27T19:47:17.828Z,9.90
2023-02-27T19:49:44.308Z,9.90
2023-02-27T19:52:10.788Z,9.90
2023-02-27T19:54:37.278Z,9.80
2023-02-27T19:57:03.781Z,9.80
2023-02-27T19:59:30.265Z,9.80
2023-02-27T20:01:56.740Z,9.80
2023-02-27T20:04:23.334Z,9.90
2023-02-27T20:06:49.895Z,9.80
2023-02-27T20:09:22.388Z,9.80
2023-02-27T20:11:48.855Z,9.90
2023-02-27T20:14:15.345Z,9.90
2023-02-27T20:16:41.858Z,9.90
2023-02-27T20:19:08.459Z,9.90
2023-02-27T20:21:34.942Z,9.80
2023-02-27T20:24:01.434Z,9.80
2023-02-27T20:26:28.272Z,9.90
2023-02-27T20:28:54.961Z,9.90
2023-02-27T20:31:21.447Z,9.90
2023-02-27T20:33:47.948Z,9.80
2023-02-27T20:36:14.451Z,9.90
2023-02-27T20:38:40.927Z,9.90
2023-02-27T20:41:07.436Z,9.90
2023-02-27T20:43:33.907Z,9.90
2023-02-27T20:46:00.423Z,9.90
2023-02-27T20:48:26.912Z,9.90
2023-02-27T20:50:53.378Z,9.80
2023-02-27T20:53:19.837Z,9.80
2023-02-27T20:55:46.343Z,9.80
2023-02-27T20:58:12.838Z,9.80
2023-02-27T21:00:40.405Z,9.80
2023-02-27T21:03:06.894Z,9.90
2023-02-27T21:05:33.383Z,9.80
2023-02-27T21:07:59.864Z,9.80
2023-02-27T21:10:26.348Z,9.90
2023-02-27T21:12:52.837Z,9.80
2023-02-27T21:15:19.316Z,9.80
2023-02-27T21:17:45.801Z,9.80
2023-02-27T21:20:12.288Z,9.80
2023-02-27T21:22:38.759Z,9.80
2023-02-27T21:25:05.244Z,9.80
2023-02-27T21:27:31.759Z,9.90
2023-02-27T21:29:58.264Z,9.80
2023-02-27T21:32:24.767Z,9.90
2023-02-27T21:34:51.284Z,9.80
2023-02-27T21:37:17.776Z,9.80
2023-02-27T21:39:44.256Z,9.80
2023-02-27T21:42:10.744Z,9.80
2023-02-27T21:44:37.220Z,9.80
2023-02-27T21:47:03.710Z,9.80
2023-02-27T21:49:30.213Z,9.80
2023-02-27T21:51:56.783Z,9.80
2023-02-27T21:54:28.671Z,9.80
2023-02-27T21:56:55.149Z,9.90
2023-02-27T21:59:22.426Z,9.80
2023-02-27T22:01:48.997Z,9.80
2023-02-27T22:04:15.530Z,9.90
2023-02-27T22:06:42.043Z,9.80
2023-02-27T22:09:08.542Z,9.80
2023-02-27T22:11:35.026Z,9.80
2023-02-27T22:14:01.487Z,9.80
2023-02-27T22:16:28.007Z,9.80
2023-02-27T22:18:54.484Z,9.70
2023-02-27T22:21:20.980Z,9.80
2023-02-27T22:23:47.488Z,9.80
2023-02-27T22:26:13.954Z,9.80
2023-02-27T22:28:40.401Z,9.80
2023-02-27T22:31:06.932Z,9.80
2023-02-27T22:33:33.418Z,9.80
2023-02-27T22:35:59.972Z,9.80
2023-02-27T22:38:26.570Z,9.80
2023-02-27T22:40:53.123Z,9.80
2023-02-27T22:43:19.608Z,9.80
2023-02-27T22:45:46.102Z,9.80
2023-02-27T22:48:12.572Z,9.80
2023-02-27T22:50:39.071Z,9.70
2023-02-27T22:53:05.552Z,9.80
2023-02-27T22:55:32.060Z,9.70
2023-02-27T22:57:58.521Z,9.70
2023-02-27T23:00:26.132Z,9.70
2023-02-27T23:02:52.616Z,9.70
2023-02-27T23:05:19.104Z,9.70
2023-02-27T23:07:45.556Z,9.70
2023-02-27T23:10:12.028Z,9.70
2023-02-27T23:12:38.492Z,9.70
2023-02-27T23:15:04.985Z,9.70
2023-02-27T23:17:31.480Z,9.70
2023-02-27T23:19:57.956Z,9.70
2023-02-27T23:22:24.438Z,9.70
2023-02-27T23:24:50.913Z,9.70
2023-02-27T23:27:25.973Z,9.60
2023-02-27T23:29:52.975Z,9.70
2023-02-27T23:32:19.582Z,9.60
2023-02-27T23:34:49.946Z,9.60
2023-02-27T23:37:16.548Z,9.60
2023-02-27T23:39:43.060Z,9.60
2023-02-27T23:42:09.555Z,9.60
2023-02-27T23:44:36.087Z,9.60
2023-02-27T23:47:02.610Z,9.60
2023-02-27T23:49:29.102Z,9.60
2023-02-27T23:51:55.609Z,9.60
2023-02-27T23:54:22.110Z,9.60
2023-02-27T23:56:48.609Z,9.60
2023-02-27T23:59:15.092Z,9.60
